sensor_id;sensor_type;location;lat;lon;timestamp;P1;durP1;ratioP1;P2;durP2;ratioP2
56141;SDS011;42018;48.588;10.836;2024-02-15T00:01:28;4.43;;;2.03;;
56141;SDS011;42018;48.588;10.836;2024-02-15T00:04:14;4.60;;;2.40;;
56141;SDS011;42018;48.588;10.836;2024-02-15T00:07:01;5.53;;;2.78;;
56141;SDS011;42018;48.588;10.836;2024-02-15T00:09:47;4.68;;;2.70;;
56141;SDS011;42018;48.588;10.836;2024-02-15T00:12:33;4.32;;;2.55;;
56141;SDS011;42018;48.588;10.836;2024-02-15T00:15:18;5.65;;;2.35;;
56141;SDS011;42018;48.588;10.836;2024-02-15T00:18:04;4.53;;;2.60;;
56141;SDS011;42018;48.588;10.836;2024-02-15T00:20:50;4.88;;;2.45;;
56141;SDS011;42018;48.588;10.836;2024-02-15T00:23:35;4.65;;;2.80;;
56141;SDS011;42018;48.588;10.836;2024-02-15T00:26:21;4.30;;;2.35;;
56141;SDS011;42018;48.588;10.836;2024-02-15T00:29:07;4.10;;;2.63;;
56141;SDS011;42018;48.588;10.836;2024-02-15T00:31:53;4.35;;;2.33;;
56141;SDS011;42018;48.588;10.836;2024-02-15T00:34:38;4.55;;;2.60;;
56141;SDS011;42018;48.588;10.836;2024-02-15T00:37:24;4.80;;;2.75;;
56141;SDS011;42018;48.588;10.836;2024-02-15T00:40:09;5.18;;;2.55;;
56141;SDS011;42018;48.588;10.836;2024-02-15T00:42:55;4.93;;;3.00;;
56141;SDS011;42018;48.588;10.836;2024-02-15T00:45:40;5.10;;;2.80;;
56141;SDS011;42018;48.588;10.836;2024-02-15T00:48:26;5.30;;;2.78;;
56141;SDS011;42018;48.588;10.836;2024-02-15T00:51:14;5.88;;;2.78;;
56141;SDS011;42018;48.588;10.836;2024-02-15T00:54:00;5.93;;;2.70;;
56141;SDS011;42018;48.588;10.836;2024-02-15T00:56:46;5.60;;;3.05;;
56141;SDS011;42018;48.588;10.836;2024-02-15T00:59:32;4.85;;;2.78;;
56141;SDS011;42018;48.588;10.836;2024-02-15T01:02:21;5.60;;;3.40;;
56141;SDS011;42018;48.588;10.836;2024-02-15T01:05:07;5.85;;;3.47;;
56141;SDS011;42018;48.588;10.836;2024-02-15T01:07:55;4.88;;;2.55;;
56141;SDS011;42018;48.588;10.836;2024-02-15T01:10:41;4.75;;;2.92;;
56141;SDS011;42018;48.588;10.836;2024-02-15T01:13:26;5.28;;;2.90;;
56141;SDS011;42018;48.588;10.836;2024-02-15T01:16:12;5.90;;;3.10;;
56141;SDS011;42018;48.588;10.836;2024-02-15T01:18:57;5.40;;;3.03;;
56141;SDS011;42018;48.588;10.836;2024-02-15T01:21:43;5.43;;;3.15;;
56141;SDS011;42018;48.588;10.836;2024-02-15T01:24:29;5.43;;;2.92;;
56141;SDS011;42018;48.588;10.836;2024-02-15T01:27:15;4.85;;;2.67;;
56141;SDS011;42018;48.588;10.836;2024-02-15T01:30:02;4.95;;;2.97;;
56141;SDS011;42018;48.588;10.836;2024-02-15T01:32:49;5.22;;;3.15;;
56141;SDS011;42018;48.588;10.836;2024-02-15T01:35:34;5.53;;;2.97;;
56141;SDS011;42018;48.588;10.836;2024-02-15T01:38:20;5.00;;;3.00;;
56141;SDS011;42018;48.588;10.836;2024-02-15T01:41:06;6.32;;;3.20;;
56141;SDS011;42018;48.588;10.836;2024-02-15T01:43:51;5.25;;;3.45;;
56141;SDS011;42018;48.588;10.836;2024-02-15T01:46:37;5.43;;;3.08;;
56141;SDS011;42018;48.588;10.836;2024-02-15T01:49:23;6.22;;;3.47;;
56141;SDS011;42018;48.588;10.836;2024-02-15T01:52:09;6.85;;;3.30;;
56141;SDS011;42018;48.588;10.836;2024-02-15T01:54:55;5.68;;;2.92;;
56141;SDS011;42018;48.588;10.836;2024-02-15T01:57:43;4.70;;;2.65;;
56141;SDS011;42018;48.588;10.836;2024-02-15T02:00:31;5.63;;;3.10;;
56141;SDS011;42018;48.588;10.836;2024-02-15T02:03:16;5.00;;;2.30;;
56141;SDS011;42018;48.588;10.836;2024-02-15T02:06:02;5.10;;;2.80;;
56141;SDS011;42018;48.588;10.836;2024-02-15T02:08:48;4.68;;;2.42;;
56141;SDS011;42018;48.588;10.836;2024-02-15T02:11:34;5.57;;;2.45;;
56141;SDS011;42018;48.588;10.836;2024-02-15T02:14:20;5.22;;;2.67;;
56141;SDS011;42018;48.588;10.836;2024-02-15T02:17:15;5.80;;;2.88;;
56141;SDS011;42018;48.588;10.836;2024-02-15T02:20:01;5.13;;;2.75;;
56141;SDS011;42018;48.588;10.836;2024-02-15T02:22:54;4.93;;;2.63;;
56141;SDS011;42018;48.588;10.836;2024-02-15T02:25:45;5.70;;;2.38;;
56141;SDS011;42018;48.588;10.836;2024-02-15T02:28:33;5.03;;;2.90;;
56141;SDS011;42018;48.588;10.836;2024-02-15T02:31:19;4.72;;;2.22;;
56141;SDS011;42018;48.588;10.836;2024-02-15T02:34:05;4.32;;;2.33;;
56141;SDS011;42018;48.588;10.836;2024-02-15T02:36:52;5.20;;;2.75;;
56141;SDS011;42018;48.588;10.836;2024-02-15T02:39:38;5.05;;;2.63;;
56141;SDS011;42018;48.588;10.836;2024-02-15T02:42:23;5.20;;;2.72;;
56141;SDS011;42018;48.588;10.836;2024-02-15T02:45:09;5.05;;;2.45;;
56141;SDS011;42018;48.588;10.836;2024-02-15T02:47:54;4.63;;;2.72;;
56141;SDS011;42018;48.588;10.836;2024-02-15T02:50:40;4.78;;;2.85;;
56141;SDS011;42018;48.588;10.836;2024-02-15T02:53:25;4.70;;;2.90;;
56141;SDS011;42018;48.588;10.836;2024-02-15T02:56:11;3.85;;;2.40;;
56141;SDS011;42018;48.588;10.836;2024-02-15T02:58:58;6.03;;;2.85;;
56141;SDS011;42018;48.588;10.836;2024-02-15T03:01:43;6.07;;;3.10;;
56141;SDS011;42018;48.588;10.836;2024-02-15T03:04:30;6.22;;;3.30;;
56141;SDS011;42018;48.588;10.836;2024-02-15T03:07:18;8.27;;;2.90;;
56141;SDS011;42018;48.588;10.836;2024-02-15T03:10:04;4.60;;;2.90;;
56141;SDS011;42018;48.588;10.836;2024-02-15T03:12:53;5.87;;;2.57;;
56141;SDS011;42018;48.588;10.836;2024-02-15T03:15:38;4.95;;;2.80;;
56141;SDS011;42018;48.588;10.836;2024-02-15T03:18:24;5.47;;;2.92;;
56141;SDS011;42018;48.588;10.836;2024-02-15T03:21:09;5.13;;;3.00;;
56141;SDS011;42018;48.588;10.836;2024-02-15T03:23:57;5.78;;;2.72;;
56141;SDS011;42018;48.588;10.836;2024-02-15T03:26:44;4.93;;;2.63;;
56141;SDS011;42018;48.588;10.836;2024-02-15T03:29:30;5.95;;;3.15;;
56141;SDS011;42018;48.588;10.836;2024-02-15T03:32:16;4.78;;;2.40;;
56141;SDS011;42018;48.588;10.836;2024-02-15T03:35:01;4.47;;;2.30;;
56141;SDS011;42018;48.588;10.836;2024-02-15T03:37:47;5.18;;;2.67;;
56141;SDS011;42018;48.588;10.836;2024-02-15T03:40:36;5.13;;;2.50;;
56141;SDS011;42018;48.588;10.836;2024-02-15T03:43:25;5.15;;;2.67;;
56141;SDS011;42018;48.588;10.836;2024-02-15T03:46:11;4.82;;;2.47;;
56141;SDS011;42018;48.588;10.836;2024-02-15T03:48:59;4.70;;;2.60;;
56141;SDS011;42018;48.588;10.836;2024-02-15T03:51:45;5.32;;;2.75;;
56141;SDS011;42018;48.588;10.836;2024-02-15T03:54:30;4.43;;;2.75;;
56141;SDS011;42018;48.588;10.836;2024-02-15T03:57:16;5.43;;;3.30;;
56141;SDS011;42018;48.588;10.836;2024-02-15T04:00:02;5.53;;;3.38;;
56141;SDS011;42018;48.588;10.836;2024-02-15T04:02:54;5.38;;;2.80;;
56141;SDS011;42018;48.588;10.836;2024-02-15T04:05:41;5.78;;;3.13;;
56141;SDS011;42018;48.588;10.836;2024-02-15T04:08:27;6.75;;;3.25;;
56141;SDS011;42018;48.588;10.836;2024-02-15T04:11:13;5.93;;;3.22;;
56141;SDS011;42018;48.588;10.836;2024-02-15T04:14:01;5.20;;;3.17;;
56141;SDS011;42018;48.588;10.836;2024-02-15T04:16:47;5.32;;;2.88;;
56141;SDS011;42018;48.588;10.836;2024-02-15T04:19:33;5.35;;;3.38;;
56141;SDS011;42018;48.588;10.836;2024-02-15T04:22:18;5.75;;;3.10;;
56141;SDS011;42018;48.588;10.836;2024-02-15T04:25:07;5.32;;;3.30;;
56141;SDS011;42018;48.588;10.836;2024-02-15T04:27:55;6.60;;;3.15;;
56141;SDS011;42018;48.588;10.836;2024-02-15T04:30:42;5.90;;;3.10;;
56141;SDS011;42018;48.588;10.836;2024-02-15T04:33:28;7.22;;;3.33;;
56141;SDS011;42018;48.588;10.836;2024-02-15T04:36:14;5.13;;;2.95;;
56141;SDS011;42018;48.588;10.836;2024-02-15T04:39:00;5.35;;;3.35;;
56141;SDS011;42018;48.588;10.836;2024-02-15T04:41:52;5.60;;;3.00;;
56141;SDS011;42018;48.588;10.836;2024-02-15T04:44:38;5.32;;;3.00;;
56141;SDS011;42018;48.588;10.836;2024-02-15T04:47:24;5.18;;;3.15;;
56141;SDS011;42018;48.588;10.836;2024-02-15T04:50:10;7.97;;;3.65;;
56141;SDS011;42018;48.588;10.836;2024-02-15T04:52:55;6.65;;;3.53;;
56141;SDS011;42018;48.588;10.836;2024-02-15T04:55:41;5.28;;;3.13;;
56141;SDS011;42018;48.588;10.836;2024-02-15T04:58:26;5.75;;;3.33;;
56141;SDS011;42018;48.588;10.836;2024-02-15T05:01:14;6.47;;;3.17;;
56141;SDS011;42018;48.588;10.836;2024-02-15T05:04:00;5.70;;;3.20;;
56141;SDS011;42018;48.588;10.836;2024-02-15T05:06:51;6.25;;;3.00;;
56141;SDS011;42018;48.588;10.836;2024-02-15T05:09:38;5.68;;;3.03;;
56141;SDS011;42018;48.588;10.836;2024-02-15T05:12:24;5.57;;;2.95;;
56141;SDS011;42018;48.588;10.836;2024-02-15T05:15:10;6.35;;;3.20;;
56141;SDS011;42018;48.588;10.836;2024-02-15T05:17:55;5.30;;;3.05;;
56141;SDS011;42018;48.588;10.836;2024-02-15T05:20:41;5.65;;;2.65;;
56141;SDS011;42018;48.588;10.836;2024-02-15T05:23:26;5.72;;;3.13;;
56141;SDS011;42018;48.588;10.836;2024-02-15T05:26:12;8.77;;;3.25;;
56141;SDS011;42018;48.588;10.836;2024-02-15T05:28:57;6.30;;;4.03;;
56141;SDS011;42018;48.588;10.836;2024-02-15T05:31:43;7.75;;;3.85;;
56141;SDS011;42018;48.588;10.836;2024-02-15T05:34:29;6.07;;;3.50;;
56141;SDS011;42018;48.588;10.836;2024-02-15T05:37:15;6.05;;;3.33;;
56141;SDS011;42018;48.588;10.836;2024-02-15T05:40:03;5.20;;;2.80;;
56141;SDS011;42018;48.588;10.836;2024-02-15T05:42:54;4.53;;;2.70;;
56141;SDS011;42018;48.588;10.836;2024-02-15T05:45:41;6.63;;;3.25;;
56141;SDS011;42018;48.588;10.836;2024-02-15T05:48:26;5.53;;;2.78;;
56141;SDS011;42018;48.588;10.836;2024-02-15T05:51:13;5.38;;;2.92;;
56141;SDS011;42018;48.588;10.836;2024-02-15T05:53:58;6.63;;;3.10;;
56141;SDS011;42018;48.588;10.836;2024-02-15T05:56:44;5.25;;;3.00;;
56141;SDS011;42018;48.588;10.836;2024-02-15T05:59:30;6.85;;;2.90;;
56141;SDS011;42018;48.588;10.836;2024-02-15T06:02:15;5.53;;;3.42;;
56141;SDS011;42018;48.588;10.836;2024-02-15T06:05:01;5.50;;;2.92;;
56141;SDS011;42018;48.588;10.836;2024-02-15T06:07:49;6.13;;;3.03;;
56141;SDS011;42018;48.588;10.836;2024-02-15T06:10:34;7.00;;;3.42;;
56141;SDS011;42018;48.588;10.836;2024-02-15T06:13:20;5.05;;;3.00;;
56141;SDS011;42018;48.588;10.836;2024-02-15T06:16:06;5.90;;;3.25;;
56141;SDS011;42018;48.588;10.836;2024-02-15T06:18:54;5.78;;;3.00;;
56141;SDS011;42018;48.588;10.836;2024-02-15T06:21:41;6.30;;;3.35;;
56141;SDS011;42018;48.588;10.836;2024-02-15T06:24:26;5.75;;;3.47;;
56141;SDS011;42018;48.588;10.836;2024-02-15T06:27:13;5.28;;;2.90;;
56141;SDS011;42018;48.588;10.836;2024-02-15T06:30:00;5.85;;;3.25;;
56141;SDS011;42018;48.588;10.836;2024-02-15T06:33:04;6.13;;;3.17;;
56141;SDS011;42018;48.588;10.836;2024-02-15T06:36:09;5.57;;;3.30;;
56141;SDS011;42018;48.588;10.836;2024-02-15T06:39:13;6.13;;;3.05;;
56141;SDS011;42018;48.588;10.836;2024-02-15T06:42:17;5.60;;;3.30;;
56141;SDS011;42018;48.588;10.836;2024-02-15T06:45:05;6.05;;;3.20;;
56141;SDS011;42018;48.588;10.836;2024-02-15T06:47:52;4.97;;;3.22;;
56141;SDS011;42018;48.588;10.836;2024-02-15T06:50:38;8.27;;;4.68;;
56141;SDS011;42018;48.588;10.836;2024-02-15T06:53:24;7.07;;;3.97;;
56141;SDS011;42018;48.588;10.836;2024-02-15T06:56:10;6.68;;;3.58;;
56141;SDS011;42018;48.588;10.836;2024-02-15T06:58:55;7.40;;;4.65;;
56141;SDS011;42018;48.588;10.836;2024-02-15T07:01:41;10.50;;;5.43;;
56141;SDS011;42018;48.588;10.836;2024-02-15T07:04:27;9.05;;;5.03;;
56141;SDS011;42018;48.588;10.836;2024-02-15T07:07:13;10.60;;;6.22;;
56141;SDS011;42018;48.588;10.836;2024-02-15T07:09:59;8.50;;;4.50;;
56141;SDS011;42018;48.588;10.836;2024-02-15T07:12:48;5.97;;;3.33;;
56141;SDS011;42018;48.588;10.836;2024-02-15T07:15:34;6.32;;;3.22;;
56141;SDS011;42018;48.588;10.836;2024-02-15T07:18:23;6.32;;;2.80;;
56141;SDS011;42018;48.588;10.836;2024-02-15T07:21:08;5.95;;;3.10;;
56141;SDS011;42018;48.588;10.836;2024-02-15T07:23:58;6.20;;;3.65;;
56141;SDS011;42018;48.588;10.836;2024-02-15T07:26:44;7.00;;;3.20;;
56141;SDS011;42018;48.588;10.836;2024-02-15T07:29:30;6.07;;;3.47;;
56141;SDS011;42018;48.588;10.836;2024-02-15T07:32:17;8.35;;;3.53;;
56141;SDS011;42018;48.588;10.836;2024-02-15T07:35:03;7.15;;;3.92;;
56141;SDS011;42018;48.588;10.836;2024-02-15T07:37:55;5.90;;;3.67;;
56141;SDS011;42018;48.588;10.836;2024-02-15T07:40:42;5.97;;;3.42;;
56141;SDS011;42018;48.588;10.836;2024-02-15T07:43:29;6.28;;;3.65;;
56141;SDS011;42018;48.588;10.836;2024-02-15T07:46:14;6.18;;;3.67;;
56141;SDS011;42018;48.588;10.836;2024-02-15T07:49:01;8.07;;;3.63;;
56141;SDS011;42018;48.588;10.836;2024-02-15T07:51:47;9.05;;;4.45;;
56141;SDS011;42018;48.588;10.836;2024-02-15T07:54:37;8.35;;;4.22;;
56141;SDS011;42018;48.588;10.836;2024-02-15T07:57:23;9.38;;;4.47;;
56141;SDS011;42018;48.588;10.836;2024-02-15T08:00:10;8.73;;;4.53;;
56141;SDS011;42018;48.588;10.836;2024-02-15T08:02:57;8.88;;;4.35;;
56141;SDS011;42018;48.588;10.836;2024-02-15T08:05:42;8.10;;;4.28;;
56141;SDS011;42018;48.588;10.836;2024-02-15T08:08:28;6.40;;;4.00;;
56141;SDS011;42018;48.588;10.836;2024-02-15T08:11:14;7.03;;;4.22;;
56141;SDS011;42018;48.588;10.836;2024-02-15T08:13:59;7.35;;;4.28;;
56141;SDS011;42018;48.588;10.836;2024-02-15T08:16:45;7.32;;;4.03;;
56141;SDS011;42018;48.588;10.836;2024-02-15T08:19:30;7.95;;;4.57;;
56141;SDS011;42018;48.588;10.836;2024-02-15T08:22:16;6.80;;;4.47;;
56141;SDS011;42018;48.588;10.836;2024-02-15T08:25:01;8.07;;;5.20;;
56141;SDS011;42018;48.588;10.836;2024-02-15T08:27:50;7.35;;;4.85;;
56141;SDS011;42018;48.588;10.836;2024-02-15T08:30:36;13.73;;;5.93;;
56141;SDS011;42018;48.588;10.836;2024-02-15T08:33:22;7.32;;;4.70;;
56141;SDS011;42018;48.588;10.836;2024-02-15T08:36:09;8.60;;;4.65;;
56141;SDS011;42018;48.588;10.836;2024-02-15T08:38:55;7.47;;;4.50;;
56141;SDS011;42018;48.588;10.836;2024-02-15T08:41:41;8.95;;;4.80;;
56141;SDS011;42018;48.588;10.836;2024-02-15T08:44:26;8.35;;;4.28;;
56141;SDS011;42018;48.588;10.836;2024-02-15T08:47:12;6.93;;;4.18;;
56141;SDS011;42018;48.588;10.836;2024-02-15T08:49:57;10.20;;;4.45;;
56141;SDS011;42018;48.588;10.836;2024-02-15T08:52:44;7.75;;;4.55;;
56141;SDS011;42018;48.588;10.836;2024-02-15T08:55:29;9.27;;;4.53;;
56141;SDS011;42018;48.588;10.836;2024-02-15T08:58:15;7.90;;;4.75;;
56141;SDS011;42018;48.588;10.836;2024-02-15T09:01:00;7.65;;;4.80;;
56141;SDS011;42018;48.588;10.836;2024-02-15T09:03:48;8.02;;;4.82;;
56141;SDS011;42018;48.588;10.836;2024-02-15T09:06:33;19.80;;;5.22;;
56141;SDS011;42018;48.588;10.836;2024-02-15T09:09:19;8.32;;;4.90;;
56141;SDS011;42018;48.588;10.836;2024-02-15T09:12:04;7.70;;;4.57;;
56141;SDS011;42018;48.588;10.836;2024-02-15T09:14:51;9.80;;;4.88;;
56141;SDS011;42018;48.588;10.836;2024-02-15T09:17:36;7.38;;;3.97;;
56141;SDS011;42018;48.588;10.836;2024-02-15T09:20:24;6.75;;;4.63;;
56141;SDS011;42018;48.588;10.836;2024-02-15T09:23:13;7.47;;;4.57;;
56141;SDS011;42018;48.588;10.836;2024-02-15T09:25:59;8.50;;;4.45;;
56141;SDS011;42018;48.588;10.836;2024-02-15T09:28:45;6.22;;;4.30;;
56141;SDS011;42018;48.588;10.836;2024-02-15T09:31:30;9.63;;;4.25;;
56141;SDS011;42018;48.588;10.836;2024-02-15T09:34:16;7.07;;;4.80;;
56141;SDS011;42018;48.588;10.836;2024-02-15T09:37:02;8.10;;;4.72;;
56141;SDS011;42018;48.588;10.836;2024-02-15T09:39:47;8.68;;;4.35;;
56141;SDS011;42018;48.588;10.836;2024-02-15T09:42:33;5.80;;;4.13;;
56141;SDS011;42018;48.588;10.836;2024-02-15T09:45:21;9.05;;;5.07;;
56141;SDS011;42018;48.588;10.836;2024-02-15T09:48:10;6.88;;;4.47;;
56141;SDS011;42018;48.588;10.836;2024-02-15T09:50:58;6.28;;;3.70;;
56141;SDS011;42018;48.588;10.836;2024-02-15T09:53:47;7.85;;;4.22;;
56141;SDS011;42018;48.588;10.836;2024-02-15T09:56:32;7.18;;;4.10;;
56141;SDS011;42018;48.588;10.836;2024-02-15T09:59:20;6.07;;;4.13;;
56141;SDS011;42018;48.588;10.836;2024-02-15T10:02:06;9.60;;;4.20;;
56141;SDS011;42018;48.588;10.836;2024-02-15T10:04:55;7.20;;;4.32;;
56141;SDS011;42018;48.588;10.836;2024-02-15T10:07:42;6.22;;;3.92;;
56141;SDS011;42018;48.588;10.836;2024-02-15T10:10:31;7.30;;;4.20;;
56141;SDS011;42018;48.588;10.836;2024-02-15T10:13:18;6.45;;;3.97;;
56141;SDS011;42018;48.588;10.836;2024-02-15T10:16:15;6.25;;;3.88;;
56141;SDS011;42018;48.588;10.836;2024-02-15T10:19:08;7.15;;;4.05;;
56141;SDS011;42018;48.588;10.836;2024-02-15T10:21:55;7.53;;;3.60;;
56141;SDS011;42018;48.588;10.836;2024-02-15T10:24:52;7.50;;;3.55;;
56141;SDS011;42018;48.588;10.836;2024-02-15T10:27:38;6.75;;;3.85;;
56141;SDS011;42018;48.588;10.836;2024-02-15T10:30:27;6.20;;;3.88;;
56141;SDS011;42018;48.588;10.836;2024-02-15T10:33:18;6.32;;;3.72;;
56141;SDS011;42018;48.588;10.836;2024-02-15T10:36:09;7.22;;;3.67;;
56141;SDS011;42018;48.588;10.836;2024-02-15T10:39:11;6.85;;;3.90;;
56141;SDS011;42018;48.588;10.836;2024-02-15T10:42:02;7.07;;;3.63;;
56141;SDS011;42018;48.588;10.836;2024-02-15T10:44:48;7.15;;;3.83;;
56141;SDS011;42018;48.588;10.836;2024-02-15T10:47:37;7.10;;;3.42;;
56141;SDS011;42018;48.588;10.836;2024-02-15T10:50:26;7.00;;;3.50;;
56141;SDS011;42018;48.588;10.836;2024-02-15T10:53:22;7.30;;;3.40;;
56141;SDS011;42018;48.588;10.836;2024-02-15T10:56:15;6.50;;;3.75;;
56141;SDS011;42018;48.588;10.836;2024-02-15T10:59:18;5.68;;;3.38;;
56141;SDS011;42018;48.588;10.836;2024-02-15T11:02:15;5.78;;;3.35;;
56141;SDS011;42018;48.588;10.836;2024-02-15T11:05:15;5.47;;;3.17;;
56141;SDS011;42018;48.588;10.836;2024-02-15T11:08:09;7.07;;;3.38;;
56141;SDS011;42018;48.588;10.836;2024-02-15T11:10:55;5.50;;;2.90;;
56141;SDS011;42018;48.588;10.836;2024-02-15T11:13:44;5.35;;;2.70;;
56141;SDS011;42018;48.588;10.836;2024-02-15T11:16:39;5.20;;;2.70;;
56141;SDS011;42018;48.588;10.836;2024-02-15T11:22:18;6.13;;;2.80;;
56141;SDS011;42018;48.588;10.836;2024-02-15T11:25:04;5.63;;;2.63;;
56141;SDS011;42018;48.588;10.836;2024-02-15T11:27:56;6.47;;;2.88;;
56141;SDS011;42018;48.588;10.836;2024-02-15T11:30:42;5.03;;;2.40;;
56141;SDS011;42018;48.588;10.836;2024-02-15T11:33:34;4.03;;;1.70;;
56141;SDS011;42018;48.588;10.836;2024-02-15T11:36:20;5.65;;;2.00;;
56141;SDS011;42018;48.588;10.836;2024-02-15T11:42:30;5.00;;;2.10;;
56141;SDS011;42018;48.588;10.836;2024-02-15T11:45:16;6.05;;;2.55;;
56141;SDS011;42018;48.588;10.836;2024-02-15T11:48:08;4.95;;;2.60;;
56141;SDS011;42018;48.588;10.836;2024-02-15T11:50:56;4.65;;;2.30;;
56141;SDS011;42018;48.588;10.836;2024-02-15T11:53:41;4.80;;;2.47;;
56141;SDS011;42018;48.588;10.836;2024-02-15T11:56:27;4.75;;;2.13;;
56141;SDS011;42018;48.588;10.836;2024-02-15T11:59:12;4.47;;;2.30;;
56141;SDS011;42018;48.588;10.836;2024-02-15T12:02:04;5.18;;;2.20;;
56141;SDS011;42018;48.588;10.836;2024-02-15T12:05:22;5.35;;;2.42;;
56141;SDS011;42018;48.588;10.836;2024-02-15T12:08:26;4.40;;;2.10;;
56141;SDS011;42018;48.588;10.836;2024-02-15T12:11:30;4.75;;;1.90;;
56141;SDS011;42018;48.588;10.836;2024-02-15T12:14:34;5.15;;;2.05;;
56141;SDS011;42018;48.588;10.836;2024-02-15T12:17:39;4.63;;;1.98;;
56141;SDS011;42018;48.588;10.836;2024-02-15T12:20:43;4.10;;;1.70;;
56141;SDS011;42018;48.588;10.836;2024-02-15T12:23:29;6.00;;;1.83;;
56141;SDS011;42018;48.588;10.836;2024-02-15T12:26:21;5.22;;;1.92;;
56141;SDS011;42018;48.588;10.836;2024-02-15T12:29:16;5.45;;;1.95;;
56141;SDS011;42018;48.588;10.836;2024-02-15T12:32:02;3.22;;;1.50;;
56141;SDS011;42018;48.588;10.836;2024-02-15T12:34:49;4.70;;;1.67;;
56141;SDS011;42018;48.588;10.836;2024-02-15T12:37:36;4.05;;;1.70;;
56141;SDS011;42018;48.588;10.836;2024-02-15T12:40:22;3.75;;;1.50;;
56141;SDS011;42018;48.588;10.836;2024-02-15T12:43:09;3.85;;;1.40;;
56141;SDS011;42018;48.588;10.836;2024-02-15T12:45:55;4.97;;;1.85;;
56141;SDS011;42018;48.588;10.836;2024-02-15T12:48:42;5.03;;;1.60;;
56141;SDS011;42018;48.588;10.836;2024-02-15T12:51:30;3.15;;;1.50;;
56141;SDS011;42018;48.588;10.836;2024-02-15T12:54:18;3.70;;;1.48;;
56141;SDS011;42018;48.588;10.836;2024-02-15T12:57:08;3.97;;;1.52;;
56141;SDS011;42018;48.588;10.836;2024-02-15T12:59:55;6.15;;;1.48;;
56141;SDS011;42018;48.588;10.836;2024-02-15T13:02:40;3.30;;;1.48;;
56141;SDS011;42018;48.588;10.836;2024-02-15T13:05:26;3.70;;;1.45;;
56141;SDS011;42018;48.588;10.836;2024-02-15T13:08:12;3.92;;;1.63;;
56141;SDS011;42018;48.588;10.836;2024-02-15T13:10:58;4.50;;;1.60;;
56141;SDS011;42018;48.588;10.836;2024-02-15T13:13:44;4.60;;;1.60;;
56141;SDS011;42018;48.588;10.836;2024-02-15T13:16:29;3.70;;;1.65;;
56141;SDS011;42018;48.588;10.836;2024-02-15T13:19:16;3.20;;;1.40;;
56141;SDS011;42018;48.588;10.836;2024-02-15T13:22:02;4.22;;;1.65;;
56141;SDS011;42018;48.588;10.836;2024-02-15T13:24:48;3.63;;;1.50;;
56141;SDS011;42018;48.588;10.836;2024-02-15T13:27:34;5.88;;;1.55;;
56141;SDS011;42018;48.588;10.836;2024-02-15T13:30:23;3.30;;;1.30;;
56141;SDS011;42018;48.588;10.836;2024-02-15T13:33:12;17.52;;;2.28;;
56141;SDS011;42018;48.588;10.836;2024-02-15T13:35:58;8.07;;;1.80;;
56141;SDS011;42018;48.588;10.836;2024-02-15T13:38:44;4.43;;;1.42;;
56141;SDS011;42018;48.588;10.836;2024-02-15T13:41:29;6.93;;;1.80;;
56141;SDS011;42018;48.588;10.836;2024-02-15T13:44:15;6.07;;;1.48;;
56141;SDS011;42018;48.588;10.836;2024-02-15T13:47:01;8.40;;;1.70;;
56141;SDS011;42018;48.588;10.836;2024-02-15T13:49:47;4.78;;;1.48;;
56141;SDS011;42018;48.588;10.836;2024-02-15T13:52:32;4.13;;;1.55;;
56141;SDS011;42018;48.588;10.836;2024-02-15T13:55:19;4.47;;;1.73;;
56141;SDS011;42018;48.588;10.836;2024-02-15T13:58:07;5.00;;;1.67;;
56141;SDS011;42018;48.588;10.836;2024-02-15T14:00:57;4.10;;;1.58;;
56141;SDS011;42018;48.588;10.836;2024-02-15T14:03:44;4.10;;;1.60;;
56141;SDS011;42018;48.588;10.836;2024-02-15T14:06:31;3.92;;;1.40;;
56141;SDS011;42018;48.588;10.836;2024-02-15T14:09:16;3.75;;;1.30;;
56141;SDS011;42018;48.588;10.836;2024-02-15T14:12:02;4.88;;;1.50;;
56141;SDS011;42018;48.588;10.836;2024-02-15T14:14:51;3.50;;;1.50;;
56141;SDS011;42018;48.588;10.836;2024-02-15T14:17:36;4.47;;;1.52;;
56141;SDS011;42018;48.588;10.836;2024-02-15T14:20:22;4.25;;;1.50;;
56141;SDS011;42018;48.588;10.836;2024-02-15T14:23:08;3.53;;;1.50;;
56141;SDS011;42018;48.588;10.836;2024-02-15T14:28:46;4.25;;;1.40;;
56141;SDS011;42018;48.588;10.836;2024-02-15T14:31:31;3.67;;;1.40;;
56141;SDS011;42018;48.588;10.836;2024-02-15T14:34:35;3.50;;;1.50;;
56141;SDS011;42018;48.588;10.836;2024-02-15T14:37:22;3.38;;;1.30;;
56141;SDS011;42018;48.588;10.836;2024-02-15T14:40:09;3.45;;;1.30;;
56141;SDS011;42018;48.588;10.836;2024-02-15T14:43:02;3.95;;;1.48;;
56141;SDS011;42018;48.588;10.836;2024-02-15T14:45:53;3.85;;;2.05;;
56141;SDS011;42018;48.588;10.836;2024-02-15T14:48:42;3.78;;;1.40;;
56141;SDS011;42018;48.588;10.836;2024-02-15T14:51:29;3.88;;;1.30;;
56141;SDS011;42018;48.588;10.836;2024-02-15T14:54:16;4.85;;;1.58;;
56141;SDS011;42018;48.588;10.836;2024-02-15T14:57:04;3.45;;;1.40;;
56141;SDS011;42018;48.588;10.836;2024-02-15T14:59:52;3.50;;;1.60;;
56141;SDS011;42018;48.588;10.836;2024-02-15T15:02:37;3.45;;;1.33;;
56141;SDS011;42018;48.588;10.836;2024-02-15T15:05:23;3.20;;;1.23;;
56141;SDS011;42018;48.588;10.836;2024-02-15T15:08:27;3.90;;;1.50;;
56141;SDS011;42018;48.588;10.836;2024-02-15T15:11:31;4.53;;;1.42;;
56141;SDS011;42018;48.588;10.836;2024-02-15T15:14:36;3.25;;;1.42;;
56141;SDS011;42018;48.588;10.836;2024-02-15T15:17:22;2.92;;;1.35;;
56141;SDS011;42018;48.588;10.836;2024-02-15T15:20:08;3.42;;;1.50;;
56141;SDS011;42018;48.588;10.836;2024-02-15T15:22:54;5.45;;;1.50;;
56141;SDS011;42018;48.588;10.836;2024-02-15T15:25:41;3.60;;;1.58;;
56141;SDS011;42018;48.588;10.836;2024-02-15T15:28:27;4.85;;;1.73;;
56141;SDS011;42018;48.588;10.836;2024-02-15T15:31:12;4.82;;;1.85;;
56141;SDS011;42018;48.588;10.836;2024-02-15T15:33:59;4.22;;;1.80;;
56141;SDS011;42018;48.588;10.836;2024-02-15T15:36:45;4.47;;;1.88;;
56141;SDS011;42018;48.588;10.836;2024-02-15T15:39:33;4.10;;;1.50;;
56141;SDS011;42018;48.588;10.836;2024-02-15T15:42:21;5.05;;;1.83;;
56141;SDS011;42018;48.588;10.836;2024-02-15T15:45:07;4.97;;;1.80;;
56141;SDS011;42018;48.588;10.836;2024-02-15T15:47:54;4.53;;;1.80;;
56141;SDS011;42018;48.588;10.836;2024-02-15T15:50:39;3.83;;;1.67;;
56141;SDS011;42018;48.588;10.836;2024-02-15T15:53:28;4.50;;;1.60;;
56141;SDS011;42018;48.588;10.836;2024-02-15T15:56:14;4.15;;;1.50;;
56141;SDS011;42018;48.588;10.836;2024-02-15T15:58:59;3.70;;;1.40;;
56141;SDS011;42018;48.588;10.836;2024-02-15T16:01:48;3.63;;;1.40;;
56141;SDS011;42018;48.588;10.836;2024-02-15T16:04:42;4.00;;;1.65;;
56141;SDS011;42018;48.588;10.836;2024-02-15T16:07:32;7.35;;;1.70;;
56141;SDS011;42018;48.588;10.836;2024-02-15T16:10:17;4.03;;;1.50;;
56141;SDS011;42018;48.588;10.836;2024-02-15T16:13:05;4.53;;;1.60;;
56141;SDS011;42018;48.588;10.836;2024-02-15T16:15:51;3.55;;;1.30;;
56141;SDS011;42018;48.588;10.836;2024-02-15T16:18:39;3.60;;;1.63;;
56141;SDS011;42018;48.588;10.836;2024-02-15T16:21:24;5.38;;;1.60;;
56141;SDS011;42018;48.588;10.836;2024-02-15T16:24:10;4.43;;;1.70;;
56141;SDS011;42018;48.588;10.836;2024-02-15T16:26:55;4.63;;;1.85;;
56141;SDS011;42018;48.588;10.836;2024-02-15T16:29:41;5.15;;;1.75;;
56141;SDS011;42018;48.588;10.836;2024-02-15T16:32:26;4.38;;;1.60;;
56141;SDS011;42018;48.588;10.836;2024-02-15T16:35:12;3.97;;;1.50;;
56141;SDS011;42018;48.588;10.836;2024-02-15T16:37:59;4.05;;;1.60;;
56141;SDS011;42018;48.588;10.836;2024-02-15T16:40:46;4.05;;;1.55;;
56141;SDS011;42018;48.588;10.836;2024-02-15T16:43:31;4.88;;;1.60;;